createdAt,value
2022-12-26T00:00:53.218Z,94974.75
2022-12-26T00:03:20.229Z,94971.56
2022-12-26T00:05:48.448Z,94987.28
2022-12-26T00:08:16.561Z,94986.69
2022-12-26T00:10:43.266Z,94983.50
2022-12-26T00:13:39.384Z,94997.81
2022-12-26T00:15:56.937Z,94993.38
2022-12-26T00:18:24.214Z,95000.00
2022-12-26T00:20:52.461Z,94995.75
2022-12-26T00:23:19.154Z,95003.25
2022-12-26T00:25:45.967Z,95005.88
2022-12-26T00:28:12.709Z,95006.25
2022-12-26T00:30:39.516Z,94999.78
2022-12-26T00:33:06.247Z,95001.59
2022-12-26T00:35:33.023Z,95002.25
2022-12-26T00:38:01.048Z,95001.69
2022-12-26T00:40:27.781Z,95005.09
2022-12-26T00:42:54.399Z,94995.41
2022-12-26T00:45:21.260Z,94994.19
2022-12-26T00:47:47.889Z,94998.81
2022-12-26T00:50:15.933Z,94984.34
2022-12-26T00:52:44.000Z,94991.84
2022-12-26T00:55:12.883Z,94988.28
2022-12-26T00:57:39.787Z,94983.47
2022-12-26T01:00:08.376Z,94989.94
2022-12-26T01:02:38.849Z,94985.94
2022-12-26T01:05:08.706Z,94986.94
2022-12-26T01:08:19.783Z,94991.97
2022-12-26T01:10:24.747Z,95002.63
2022-12-26T01:12:51.791Z,95001.03
2022-12-26T01:15:19.310Z,95000.81
2022-12-26T01:17:46.655Z,95000.63
2022-12-26T01:20:13.411Z,95006.44
2022-12-26T01:22:40.179Z,95009.84
2022-12-26T01:25:08.111Z,95014.06
2022-12-26T01:27:36.163Z,95012.69
2022-12-26T01:30:03.678Z,95016.94
2022-12-26T01:32:30.408Z,95011.78
2022-12-26T01:34:57.090Z,95020.47
2022-12-26T01:37:23.964Z,95018.28
2022-12-26T01:39:51.727Z,95014.50
2022-12-26T01:42:20.936Z,95022.56
2022-12-26T01:45:02.614Z,95015.75
2022-12-26T01:47:42.255Z,95016.72
2022-12-26T01:50:20.811Z,95013.56
2022-12-26T01:52:49.129Z,95027.88
2022-12-26T01:55:19.643Z,95024.06
2022-12-26T01:57:53.479Z,95035.31
2022-12-26T02:00:21.912Z,95040.13
2022-12-26T02:03:07.733Z,95032.06
2022-12-26T02:05:34.965Z,95032.06
2022-12-26T02:08:06.172Z,95034.09
2022-12-26T02:10:38.523Z,95036.13
2022-12-26T02:13:06.239Z,95037.13
2022-12-26T02:15:35.453Z,95029.72
2022-12-26T02:18:02.170Z,95028.13
2022-12-26T02:20:33.904Z,95022.50
2022-12-26T02:23:33.901Z,95030.78
2022-12-26T02:26:43.250Z,95043.25
2022-12-26T02:29:43.837Z,95037.22
2022-12-26T02:32:21.519Z,95039.88
2022-12-26T02:34:58.077Z,95035.28
2022-12-26T02:37:41.669Z,95028.44
2022-12-26T02:40:27.003Z,95020.41
2022-12-26T02:43:01.608Z,95029.63
2022-12-26T02:45:52.991Z,95037.06
2022-12-26T02:48:31.561Z,95031.41
2022-12-26T02:51:28.046Z,95037.41
2022-12-26T02:54:25.003Z,95040.44
2022-12-26T02:57:16.062Z,95031.56
2022-12-26T03:00:08.909Z,95021.34
2022-12-26T03:02:58.874Z,95028.16
2022-12-26T03:05:50.719Z,95030.97
2022-12-26T03:08:43.688Z,95030.97
2022-12-26T03:11:32.257Z,95030.78
2022-12-26T03:14:07.209Z,95021.78
2022-12-26T03:16:53.084Z,95021.41
2022-12-26T03:19:22.014Z,95029.47
2022-12-26T03:21:50.496Z,95026.06
2022-12-26T03:24:17.983Z,95028.84
2022-12-26T03:26:50.711Z,95022.63
2022-12-26T03:29:37.883Z,95024.22
2022-12-26T03:32:11.462Z,95023.63
2022-12-26T03:34:41.453Z,95016.81
2022-12-26T03:37:23.501Z,95025.06
2022-12-26T03:40:21.022Z,95028.50
2022-12-26T03:43:14.442Z,95025.88
2022-12-26T03:46:10.187Z,95029.72
2022-12-26T03:49:03.419Z,95031.53
2022-12-26T03:51:53.945Z,95030.94
2022-12-26T03:54:49.218Z,95033.97
2022-12-26T03:57:39.980Z,95020.50
2022-12-26T04:00:27.802Z,95014.09
2022-12-26T04:03:19.387Z,95009.84
2022-12-26T04:06:07.044Z,95011.50
2022-12-26T04:09:01.573Z,95008.13
2022-12-26T04:11:49.044Z,95007.38
2022-12-26T04:14:47.385Z,95011.00
2022-12-26T04:17:41.078Z,95001.41
2022-12-26T04:20:16.416Z,95000.81
2022-12-26T04:23:07.146Z,95006.44
2022-12-26T04:25:57.825Z,95006.03
2022-12-26T04:28:44.621Z,95012.84
2022-12-26T04:31:33.442Z,95022.31
2022-12-26T04:34:21.765Z,95024.91
2022-12-26T04:37:11.488Z,95045.41
2022-12-26T04:39:58.791Z,95046.56
2022-12-26T04:42:46.011Z,95052.22
2022-12-26T04:45:15.083Z,95057.03
2022-12-26T04:48:02.074Z,95054.59
2022-12-26T04:50:28.752Z,95055.75
2022-12-26T04:52:58.683Z,95056.00
2022-12-26T04:55:26.590Z,95059.59
2022-12-26T04:57:53.742Z,95059.81
2022-12-26T05:00:24.997Z,95067.06
2022-12-26T05:03:16.276Z,95065.84
2022-12-26T05:06:08.227Z,95070.69
2022-12-26T05:08:56.301Z,95065.09
2022-12-26T05:11:24.257Z,95068.72
2022-12-26T05:13:52.121Z,95069.16
2022-12-26T05:16:39.595Z,95064.53
2022-12-26T05:19:24.761Z,95075.19
2022-12-26T05:22:10.289Z,95071.16
2022-12-26T05:24:59.627Z,95080.25
2022-12-26T05:27:52.304Z,95085.28
2022-12-26T05:30:18.990Z,95082.28
2022-12-26T05:33:05.808Z,95090.91
2022-12-26T05:35:33.233Z,95088.88
2022-12-26T05:37:59.948Z,95094.91
2022-12-26T05:40:26.906Z,95099.72
2022-12-26T05:42:53.592Z,95103.97
2022-12-26T05:45:20.529Z,95111.19
2022-12-26T05:47:52.084Z,95111.78
2022-12-26T05:50:19.301Z,95108.78
2022-12-26T05:52:45.971Z,95115.63
2022-12-26T05:55:12.722Z,95112.00
2022-12-26T05:57:39.591Z,95116.22
2022-12-26T06:00:07.736Z,95116.22
2022-12-26T06:02:34.648Z,95113.41
2022-12-26T06:05:02.658Z,95115.81
2022-12-26T06:07:29.476Z,95109.56
2022-12-26T06:09:56.085Z,95116.19
2022-12-26T06:12:22.722Z,95110.97
2022-12-26T06:14:49.317Z,95120.63
2022-12-26T06:17:15.938Z,95108.97
2022-12-26T06:19:46.713Z,95109.16
2022-12-26T06:22:15.323Z,95107.97
2022-12-26T06:24:42.055Z,95103.91
2022-12-26T06:27:08.930Z,95098.28
2022-12-26T06:29:35.915Z,95109.75
2022-12-26T06:32:03.080Z,95089.41
2022-12-26T06:34:30.055Z,95098.66
2022-12-26T06:36:56.914Z,95105.50
2022-12-26T06:39:26.010Z,95094.84
2022-12-26T06:41:52.888Z,95104.06
2022-12-26T06:44:19.706Z,95098.66
2022-12-26T06:46:46.503Z,95104.25
2022-12-26T06:49:13.209Z,95108.06
2022-12-26T06:51:40.048Z,95102.44
2022-12-26T06:54:06.978Z,95096.00
2022-12-26T06:56:35.596Z,95095.56
2022-12-26T06:59:04.450Z,95089.94
2022-12-26T07:01:33.343Z,95093.16
2022-12-26T07:04:01.134Z,95086.69
2022-12-26T07:06:30.050Z,95090.72
2022-12-26T07:08:58.512Z,95085.84
2022-12-26T07:11:27.924Z,95085.03
2022-12-26T07:13:56.299Z,95073.75
2022-12-26T07:16:23.324Z,95060.84
2022-12-26T07:18:52.544Z,95051.56
2022-12-26T07:21:19.315Z,95053.38
2022-12-26T07:23:45.928Z,95049.09
2022-12-26T07:26:12.789Z,95053.28
2022-12-26T07:28:39.487Z,95056.06
2022-12-26T07:31:07.981Z,95063.91
2022-12-26T07:33:35.366Z,95058.41
2022-12-26T07:36:03.503Z,95055.31
2022-12-26T07:38:30.294Z,95047.81
2022-12-26T07:40:57.796Z,95052.34
2022-12-26T07:43:25.287Z,95062.53
2022-12-26T07:45:53.004Z,95053.63
2022-12-26T07:48:21.043Z,95060.25
2022-12-26T07:50:49.528Z,95058.56
2022-12-26T07:53:16.434Z,95061.44
2022-12-26T07:55:43.061Z,95059.88
2022-12-26T07:58:10.000Z,95070.69
2022-12-26T08:00:36.615Z,95071.41
2022-12-26T08:03:07.837Z,95084.59
2022-12-26T08:05:36.637Z,95068.94
2022-12-26T08:08:03.507Z,95071.47
2022-12-26T08:10:30.106Z,95071.50
2022-12-26T08:12:56.819Z,95074.41
2022-12-26T08:15:23.453Z,95071.84
2022-12-26T08:17:50.069Z,95069.72
2022-12-26T08:20:16.731Z,95072.47
2022-12-26T08:22:44.798Z,95063.47
2022-12-26T08:25:13.313Z,95069.53
2022-12-26T08:27:40.885Z,95082.06
2022-12-26T08:30:09.732Z,95073.53
2022-12-26T08:32:38.308Z,95075.28
2022-12-26T08:35:08.298Z,95075.88
2022-12-26T08:37:34.940Z,95066.88
2022-12-26T08:40:03.150Z,95078.44
2022-12-26T08:42:29.931Z,95081.56
2022-12-26T08:44:56.608Z,95086.59
2022-12-26T08:47:26.665Z,95080.66
2022-12-26T08:49:53.687Z,95088.97
2022-12-26T08:52:20.287Z,95085.69
2022-12-26T08:54:46.983Z,95079.13
2022-12-26T08:57:15.829Z,95079.09
2022-12-26T08:59:42.858Z,95089.84
2022-12-26T09:02:11.054Z,95081.41
2022-12-26T09:04:38.440Z,95070.69
2022-12-26T09:07:07.496Z,95070.41
2022-12-26T09:09:34.098Z,95069.31
2022-12-26T09:12:00.753Z,95068.00
2022-12-26T09:14:28.908Z,95065.91
2022-12-26T09:16:55.732Z,95062.31
2022-12-26T09:19:22.641Z,95052.69
2022-12-26T09:22:10.465Z,95060.22
2022-12-26T09:24:37.554Z,95048.22
2022-12-26T09:27:04.229Z,95037.50
2022-12-26T09:29:32.146Z,95039.63
2022-12-26T09:31:58.792Z,95038.97
2022-12-26T09:34:25.455Z,95044.16
2022-12-26T09:36:52.064Z,95036.88
2022-12-26T09:39:18.681Z,95038.28
2022-12-26T09:41:59.761Z,95038.16
2022-12-26T09:44:42.867Z,95038.03
2022-12-26T09:47:20.300Z,95039.69
2022-12-26T09:49:53.956Z,95034.94
2022-12-26T09:52:24.429Z,95036.25
2022-12-26T09:54:54.055Z,95034.69
2022-12-26T09:57:37.863Z,95030.16
2022-12-26T10:00:07.391Z,95024.88
2022-12-26T10:02:40.102Z,95026.00
2022-12-26T10:05:07.465Z,95025.47
2022-12-26T10:07:42.637Z,95022.03
2022-12-26T10:10:11.397Z,95027.84
2022-12-26T10:12:50.107Z,95032.06
2022-12-26T10:15:39.735Z,95026.72
2022-12-26T10:18:18.499Z,95025.88
2022-12-26T10:20:58.909Z,95021.34
2022-12-26T10:23:31.797Z,95017.63
2022-12-26T10:26:05.899Z,95012.31
2022-12-26T10:28:37.269Z,95000.34
2022-12-26T10:31:09.963Z,94991.28
2022-12-26T10:33:45.188Z,95003.44
2022-12-26T10:36:18.009Z,94998.34
2022-12-26T10:38:48.246Z,94999.66
2022-12-26T10:41:18.931Z,94999.13
2022-12-26T10:43:45.946Z,94995.91
2022-12-26T10:46:34.683Z,94987.31
2022-12-26T10:49:01.539Z,94989.84
2022-12-26T10:51:28.542Z,94986.09
2022-12-26T10:53:55.737Z,94992.63
2022-12-26T10:56:25.520Z,94981.91
2022-12-26T10:59:00.576Z,94978.16
2022-12-26T11:01:34.510Z,94980.22
2022-12-26T11:04:03.059Z,94972.22
2022-12-26T11:06:32.911Z,94980.72
2022-12-26T11:09:00.587Z,94979.34
2022-12-26T11:11:50.575Z,94972.00
2022-12-26T11:14:33.777Z,94973.88
2022-12-26T11:17:06.038Z,94968.25
2022-12-26T11:19:35.124Z,94972.66
2022-12-26T11:22:15.213Z,94965.41
2022-12-26T11:24:41.896Z,94966.31
2022-12-26T11:27:18.384Z,94970.28
2022-12-26T11:29:45.011Z,94967.25
2022-12-26T11:32:20.292Z,94966.72
2022-12-26T11:34:49.640Z,94971.25
2022-12-26T11:37:29.153Z,94975.38
2022-12-26T11:39:57.104Z,94970.91
2022-12-26T11:42:25.397Z,94979.69
2022-12-26T11:44:55.371Z,94973.34
2022-12-26T11:47:27.159Z,94974.97
2022-12-26T11:49:59.439Z,94977.19
2022-12-26T11:52:38.656Z,94971.13
2022-12-26T11:55:26.500Z,94978.09
2022-12-26T11:57:58.851Z,94966.69
2022-12-26T12:00:27.354Z,94972.25
2022-12-26T12:02:56.628Z,94966.16
2022-12-26T12:05:45.876Z,94955.81
2022-12-26T12:08:39.581Z,94975.03
2022-12-26T12:11:20.754Z,94978.53
2022-12-26T12:14:02.270Z,94979.06
2022-12-26T12:16:38.075Z,94980.94
2022-12-26T12:19:19.120Z,94993.53
2022-12-26T12:21:52.067Z,95004.06
2022-12-26T12:24:35.932Z,94997.53
2022-12-26T12:27:14.052Z,95017.63
2022-12-26T12:30:03.532Z,95033.84
2022-12-26T12:32:39.941Z,95037.59
2022-12-26T12:35:29.393Z,95049.06
2022-12-26T12:38:10.124Z,95042.69
2022-12-26T12:40:46.150Z,95046.94
2022-12-26T12:43:20.119Z,95048.25
2022-12-26T12:45:57.395Z,95030.97
2022-12-26T12:48:42.939Z,95049.22
2022-12-26T12:51:22.920Z,95057.13
2022-12-26T12:54:09.982Z,95057.88
2022-12-26T12:56:44.782Z,95055.25
2022-12-26T12:59:24.942Z,95060.00
2022-12-26T13:01:56.145Z,95057.34
2022-12-26T13:04:26.782Z,95073.41
2022-12-26T13:06:58.460Z,95077.88
2022-12-26T13:09:29.308Z,95073.09
2022-12-26T13:12:01.331Z,95075.75
2022-12-26T13:14:33.470Z,95100.06
2022-12-26T13:17:05.384Z,95098.69
2022-12-26T13:19:38.954Z,95105.56
2022-12-26T13:22:13.728Z,95105.25
2022-12-26T13:24:45.148Z,95116.59
2022-12-26T13:27:21.748Z,95112.13
2022-12-26T13:29:49.246Z,95117.09
2022-12-26T13:32:21.790Z,95104.66
2022-12-26T13:34:49.272Z,95111.50
2022-12-26T13:37:59.049Z,95116.97
2022-12-26T13:40:29.913Z,95134.94
2022-12-26T13:43:20.839Z,95126.97
2022-12-26T13:45:51.453Z,95131.63
2022-12-26T13:48:54.409Z,95133.41
2022-12-26T13:51:56.044Z,95131.28
2022-12-26T13:54:25.360Z,95139.97
2022-12-26T13:57:23.479Z,95130.97
2022-12-26T14:00:04.726Z,95138.09
2022-12-26T14:03:17.216Z,95152.94
2022-12-26T14:05:59.391Z,95151.31
2022-12-26T14:08:35.532Z,95150.78
2022-12-26T14:11:14.126Z,95153.69
2022-12-26T14:14:05.373Z,95165.84
2022-12-26T14:16:43.645Z,95173.50
2022-12-26T14:19:20.611Z,95172.13
2022-12-26T14:21:53.970Z,95173.66
2022-12-26T14:24:35.337Z,95194.75
2022-12-26T14:27:26.614Z,95188.88
2022-12-26T14:30:06.940Z,95196.50
2022-12-26T14:32:40.951Z,95198.34
2022-12-26T14:35:18.933Z,95200.19
2022-12-26T14:37:52.878Z,95197.28
2022-12-26T14:40:29.351Z,95205.72
2022-12-26T14:43:31.465Z,95210.66
2022-12-26T14:46:02.742Z,95211.63
2022-12-26T14:48:47.714Z,95203.72
2022-12-26T14:51:36.828Z,95207.72
2022-12-26T14:54:35.199Z,95201.81
2022-12-26T14:57:22.052Z,95205.66
2022-12-26T15:00:14.297Z,95203.25
2022-12-26T15:02:46.112Z,95202.41
2022-12-26T15:05:17.551Z,95212.44
2022-12-26T15:08:08.588Z,95213.22
2022-12-26T15:11:08.923Z,95209.28
2022-12-26T15:14:02.724Z,95205.38
2022-12-26T15:16:49.048Z,95212.00
2022-12-26T15:20:12.515Z,95201.16
2022-12-26T15:23:24.751Z,95212.78
2022-12-26T15:26:37.200Z,95226.22
2022-12-26T15:29:37.634Z,95226.50
2022-12-26T15:32:13.298Z,95212.16
2022-12-26T15:35:01.600Z,95220.59
2022-12-26T15:37:45.327Z,95228.44
2022-12-26T15:40:16.084Z,95227.88
2022-12-26T15:42:56.090Z,95232.59
2022-12-26T15:45:39.824Z,95231.00
2022-12-26T15:48:14.455Z,95228.59
2022-12-26T15:50:53.565Z,95228.59
2022-12-26T15:53:31.848Z,95233.41
2022-12-26T15:56:21.304Z,95239.50
2022-12-26T15:59:08.948Z,95233.09
2022-12-26T16:01:38.856Z,95233.09
2022-12-26T16:04:12.825Z,95235.13
2022-12-26T16:07:07.628Z,95231.56
2022-12-26T16:09:45.573Z,95235.28
2022-12-26T16:12:24.880Z,95230.22
2022-12-26T16:15:01.528Z,95226.22
2022-12-26T16:17:29.007Z,95217.78
2022-12-26T16:19:56.228Z,95209.78
2022-12-26T16:22:43.617Z,95204.72
2022-12-26T16:25:13.189Z,95205.13
2022-12-26T16:27:42.173Z,95202.72
2022-12-26T16:30:16.632Z,95200.34
2022-12-26T16:32:44.316Z,95197.84
2022-12-26T16:35:19.161Z,95203.38
2022-12-26T16:37:46.803Z,95195.41
2022-12-26T16:40:23.352Z,95185.88
2022-12-26T16:43:00.837Z,95187.72
2022-12-26T16:45:30.714Z,95187.22
2022-12-26T16:47:58.259Z,95188.03
2022-12-26T16:50:27.103Z,95194.91
2022-12-26T16:53:10.133Z,95202.34
2022-12-26T16:55:41.914Z,95211.03
2022-12-26T16:58:17.963Z,95203.38
2022-12-26T17:00:59.032Z,95200.66
2022-12-26T17:03:30.177Z,95219.16
2022-12-26T17:05:57.433Z,95232.25
2022-12-26T17:08:24.575Z,95231.09
2022-12-26T17:10:51.766Z,95230.91
2022-12-26T17:13:24.686Z,95218.47
2022-12-26T17:15:56.501Z,95231.78
2022-12-26T17:18:37.715Z,95230.91
2022-12-26T17:21:22.338Z,95213.41
2022-12-26T17:24:04.011Z,95214.91
2022-12-26T17:26:31.049Z,95207.16
2022-12-26T17:28:59.062Z,95196.28
2022-12-26T17:31:33.388Z,95203.97
2022-12-26T17:34:05.845Z,95209.72
2022-12-26T17:37:08.707Z,95232.84
2022-12-26T17:39:23.515Z,95233.34
2022-12-26T17:41:52.021Z,95240.66
2022-12-26T17:44:37.311Z,95239.53
2022-12-26T17:47:14.526Z,95240.56
2022-12-26T17:49:41.160Z,95210.44
2022-12-26T17:52:09.291Z,95202.00
2022-12-26T17:54:35.940Z,95230.09
2022-12-26T17:57:02.553Z,95241.91
2022-12-26T17:59:29.117Z,95219.56
2022-12-26T18:01:57.182Z,95217.47
2022-12-26T18:04:23.845Z,95216.56
2022-12-26T18:06:50.560Z,95206.28
2022-12-26T18:09:26.549Z,95220.47
2022-12-26T18:11:53.948Z,95204.56
2022-12-26T18:14:21.206Z,95225.41
2022-12-26T18:16:49.380Z,95212.47
2022-12-26T18:19:18.954Z,95193.00
2022-12-26T18:21:46.084Z,95176.16
2022-12-26T18:24:13.299Z,95187.75
2022-12-26T18:26:40.467Z,95192.06
2022-12-26T18:29:07.216Z,95208.44
2022-12-26T18:31:33.858Z,95195.84
2022-12-26T18:34:00.564Z,95193.53
2022-12-26T18:36:31.314Z,95196.16
2022-12-26T18:38:57.988Z,95196.94
2022-12-26T18:41:24.557Z,95218.91
2022-12-26T18:43:51.238Z,95225.34
2022-12-26T18:46:19.394Z,95217.75
2022-12-26T18:48:46.679Z,95215.69
2022-12-26T18:51:13.571Z,95208.09
2022-12-26T18:53:41.845Z,95198.13
2022-12-26T18:56:13.461Z,95199.25
2022-12-26T18:58:40.248Z,95201.88
2022-12-26T19:01:07.688Z,95204.28
2022-12-26T19:03:35.647Z,95206.19
2022-12-26T19:06:02.298Z,95191.19
2022-12-26T19:08:28.945Z,95197.59
2022-12-26T19:10:56.919Z,95204.44
2022-12-26T19:13:23.554Z,95157.56
2022-12-26T19:15:50.439Z,95168.31
2022-12-26T19:18:17.072Z,95191.25
2022-12-26T19:20:44.553Z,95182.56
2022-12-26T19:23:11.563Z,95171.75
2022-12-26T19:25:38.443Z,95216.59
2022-12-26T19:28:06.735Z,95197.09
2022-12-26T19:30:38.548Z,95129.91
2022-12-26T19:33:06.140Z,95127.84
2022-12-26T19:35:32.791Z,95142.91
2022-12-26T19:37:59.583Z,95157.47
2022-12-26T19:40:26.323Z,95191.28
2022-12-26T19:42:53.231Z,95201.09
2022-12-26T19:45:21.290Z,95204.31
2022-12-26T19:47:48.012Z,95206.94
2022-12-26T19:50:14.692Z,95223.56
2022-12-26T19:52:41.385Z,95236.28
2022-12-26T19:55:11.099Z,95243.75
2022-12-26T19:57:37.861Z,95253.25
2022-12-26T20:00:05.974Z,95255.66
2022-12-26T20:02:40.087Z,95260.47
2022-12-26T20:05:07.900Z,95248.56
2022-12-26T20:07:34.959Z,95249.38
2022-12-26T20:10:01.608Z,95249.13
2022-12-26T20:12:28.217Z,95241.75
2022-12-26T20:14:54.920Z,95240.47
2022-12-26T20:17:21.867Z,95235.19
2022-12-26T20:19:50.210Z,95242.31
2022-12-26T20:22:17.083Z,95227.06
2022-12-26T20:24:43.793Z,95240.34
2022-12-26T20:27:10.802Z,95245.91
2022-12-26T20:29:37.617Z,95240.91
2022-12-26T20:32:04.683Z,95237.13
2022-12-26T20:34:31.489Z,95221.53
2022-12-26T20:36:59.516Z,95239.06
2022-12-26T20:39:27.117Z,95235.94
2022-12-26T20:41:54.164Z,95231.22
2022-12-26T20:44:21.100Z,95241.53
2022-12-26T20:46:48.087Z,95234.16
2022-12-26T20:49:14.944Z,95234.97
2022-12-26T20:51:43.978Z,95213.63
2022-12-26T20:54:14.079Z,95223.19
2022-12-26T20:56:41.392Z,95221.06
2022-12-26T20:59:08.567Z,95225.75
2022-12-26T21:01:37.467Z,95227.13
2022-12-26T21:04:04.784Z,95223.69
2022-12-26T21:06:34.175Z,95231.13
2022-12-26T21:09:00.702Z,95230.31
2022-12-26T21:11:30.762Z,95212.91
2022-12-26T21:13:59.355Z,95219.19
2022-12-26T21:16:29.573Z,95217.63
2022-12-26T21:18:57.358Z,95225.75
2022-12-26T21:21:26.831Z,95233.19
2022-12-26T21:23:56.049Z,95234.03
2022-12-26T21:26:22.749Z,95250.16
2022-12-26T21:28:54.477Z,95248.09
2022-12-26T21:31:21.180Z,95257.59
2022-12-26T21:33:47.896Z,95247.03
2022-12-26T21:36:15.539Z,95243.34
2022-12-26T21:38:42.435Z,95249.69
2022-12-26T21:41:10.007Z,95256.53
2022-12-26T21:43:36.927Z,95258.97
2022-12-26T21:46:08.667Z,95253.69
2022-12-26T21:48:36.163Z,95271.94
2022-12-26T21:51:02.894Z,95272.94
2022-12-26T21:53:29.517Z,95280.88
2022-12-26T21:56:03.566Z,95294.63
2022-12-26T21:58:30.441Z,95307.84
2022-12-26T22:00:57.041Z,95320.72
2022-12-26T22:03:43.493Z,95336.78
2022-12-26T22:06:15.177Z,95357.59
2022-12-26T22:08:43.762Z,95355.34
2022-12-26T22:11:37.425Z,95369.97
2022-12-26T22:14:04.086Z,95377.47
2022-12-26T22:16:32.892Z,95384.50
2022-12-26T22:19:00.833Z,95382.53
2022-12-26T22:21:27.461Z,95387.69
2022-12-26T22:23:54.389Z,95391.81
2022-12-26T22:26:23.210Z,95398.94
2022-12-26T22:28:50.190Z,95414.34
2022-12-26T22:31:19.738Z,95407.03
2022-12-26T22:33:46.496Z,95419.78
2022-12-26T22:36:14.465Z,95417.72
2022-12-26T22:38:41.071Z,95417.59
2022-12-26T22:41:07.712Z,95434.34
2022-12-26T22:43:35.477Z,95423.69
2022-12-26T22:46:02.299Z,95428.28
2022-12-26T22:48:29.009Z,95436.66
2022-12-26T22:50:55.849Z,95425.41
2022-12-26T22:53:25.024Z,95420.97
2022-12-26T22:55:56.139Z,95431.50
2022-12-26T22:58:22.998Z,95429.44
2022-12-26T23:00:50.049Z,95442.72
2022-12-26T23:03:16.831Z,95452.91
2022-12-26T23:05:44.508Z,95457.97
2022-12-26T23:08:16.778Z,95456.72
2022-12-26T23:10:46.247Z,95465.03
2022-12-26T23:13:14.541Z,95468.38
2022-12-26T23:15:52.171Z,95470.19
2022-12-26T23:18:46.432Z,95469.84
2022-12-26T23:21:42.264Z,95472.34
2022-12-26T23:24:13.398Z,95477.28
2022-12-26T23:26:45.673Z,95477.03
2022-12-26T23:29:37.025Z,95479.91
2022-12-26T23:32:04.818Z,95486.19
2022-12-26T23:34:31.789Z,95483.34
2022-12-26T23:36:58.693Z,95485.19
2022-12-26T23:39:25.515Z,95483.00
2022-12-26T23:41:53.569Z,95486.66
2022-12-26T23:44:20.241Z,95482.63
2022-12-26T23:46:46.936Z,95476.81
2022-12-26T23:49:14.704Z,95487.91
2022-12-26T23:51:42.184Z,95481.84
2022-12-26T23:54:09.206Z,95485.06
2022-12-26T23:56:36.034Z,95493.63
2022-12-26T23:59:04.541Z,95502.31
